createdAt,value
2022-12-19T00:01:53.644Z,31.47
2022-12-19T00:04:39.629Z,30.73
2022-12-19T00:07:25.271Z,30.00
2022-12-19T00:10:10.547Z,30.73
2022-12-19T00:12:55.972Z,31.80
2022-12-19T00:15:41.674Z,32.23
2022-12-19T00:18:26.852Z,31.20
2022-12-19T00:21:14.244Z,30.23
2022-12-19T00:23:59.677Z,30.73
2022-12-19T00:26:45.230Z,31.77
2022-12-19T00:29:30.249Z,31.97
2022-12-19T00:32:15.715Z,31.37
2022-12-19T00:35:03.366Z,31.63
2022-12-19T00:37:49.667Z,31.80
2022-12-19T00:40:35.489Z,33.30
2022-12-19T00:43:21.067Z,31.70
2022-12-19T00:46:09.462Z,31.57
2022-12-19T00:48:56.318Z,33.20
2022-12-19T00:51:42.048Z,32.40
2022-12-19T00:54:28.280Z,31.87
2022-12-19T00:57:13.876Z,32.27
2022-12-19T00:59:59.227Z,33.20
2022-12-19T01:02:44.740Z,33.73
2022-12-19T01:05:30.389Z,33.13
2022-12-19T01:08:16.655Z,32.07
2022-12-19T01:11:04.136Z,32.63
2022-12-19T01:13:51.438Z,32.23
2022-12-19T01:16:36.538Z,32.40
2022-12-19T01:19:21.788Z,31.93
2022-12-19T01:22:06.892Z,32.00
2022-12-19T01:24:52.820Z,32.27
2022-12-19T01:27:38.398Z,32.07
2022-12-19T01:30:24.082Z,32.37
2022-12-19T01:33:15.225Z,32.60
2022-12-19T01:36:00.489Z,34.07
2022-12-19T01:38:46.132Z,33.97
2022-12-19T01:41:31.408Z,34.70
2022-12-19T01:44:16.699Z,33.80
2022-12-19T01:47:02.117Z,35.13
2022-12-19T01:49:47.571Z,35.20
2022-12-19T01:52:33.098Z,33.83
2022-12-19T01:55:19.939Z,33.20
2022-12-19T01:58:06.438Z,34.90
2022-12-19T02:00:52.131Z,34.90
2022-12-19T02:03:38.193Z,33.90
2022-12-19T02:06:25.364Z,37.33
2022-12-19T02:09:14.563Z,33.50
2022-12-19T02:12:00.919Z,34.97
2022-12-19T02:14:47.299Z,34.63
2022-12-19T02:18:03.991Z,33.00
2022-12-19T02:21:07.233Z,35.43
2022-12-19T02:24:27.389Z,37.23
2022-12-19T02:27:45.209Z,34.90
2022-12-19T02:30:37.523Z,33.77
2022-12-19T02:33:55.361Z,33.97
2022-12-19T02:36:53.210Z,32.73
2022-12-19T02:40:11.976Z,34.33
2022-12-19T02:43:02.783Z,32.27
2022-12-19T02:45:48.779Z,33.70
2022-12-19T02:48:34.966Z,35.27
2022-12-19T02:51:20.050Z,33.23
2022-12-19T02:54:05.572Z,34.90
2022-12-19T02:57:09.694Z,33.80
2022-12-19T03:00:04.533Z,33.10
2022-12-19T03:03:10.088Z,32.67
2022-12-19T03:06:08.701Z,32.27
2022-12-19T03:08:59.901Z,33.83
2022-12-19T03:11:49.781Z,32.77
2022-12-19T03:14:37.350Z,32.97
2022-12-19T03:17:23.109Z,32.53
2022-12-19T03:20:18.942Z,32.00
2022-12-19T03:23:04.311Z,33.60
2022-12-19T03:25:54.313Z,32.57
2022-12-19T03:28:48.134Z,33.50
2022-12-19T03:31:35.900Z,33.47
2022-12-19T03:34:26.771Z,35.07
2022-12-19T03:37:17.129Z,35.17
2022-12-19T03:40:07.909Z,34.93
2022-12-19T03:42:59.139Z,34.87
2022-12-19T03:46:01.142Z,34.50
2022-12-19T03:48:49.996Z,33.97
2022-12-19T03:51:48.242Z,34.47
2022-12-19T03:54:42.195Z,34.17
2022-12-19T03:57:34.690Z,34.07
2022-12-19T04:00:20.863Z,34.03
2022-12-19T04:03:07.238Z,34.57
2022-12-19T04:05:53.708Z,33.60
2022-12-19T04:08:39.883Z,33.63
2022-12-19T04:11:30.209Z,33.47
2022-12-19T04:14:28.304Z,34.07
2022-12-19T04:17:28.573Z,32.90
2022-12-19T04:20:21.060Z,33.73
2022-12-19T04:23:18.609Z,32.93
2022-12-19T04:26:06.482Z,33.67
2022-12-19T04:29:00.222Z,33.33
2022-12-19T04:31:48.181Z,33.33
2022-12-19T04:34:35.355Z,32.87
2022-12-19T04:37:23.353Z,33.87
2022-12-19T04:40:10.039Z,33.73
2022-12-19T04:42:55.600Z,32.67
2022-12-19T04:45:41.674Z,33.33
2022-12-19T04:48:26.929Z,33.93
2022-12-19T04:51:14.307Z,34.63
2022-12-19T04:53:59.453Z,34.40
2022-12-19T04:56:44.727Z,35.43
2022-12-19T04:59:29.924Z,35.10
2022-12-19T05:02:15.134Z,35.17
2022-12-19T05:05:00.226Z,35.33
2022-12-19T05:07:45.738Z,36.17
2022-12-19T05:10:31.098Z,35.37
2022-12-19T05:13:16.354Z,35.07
2022-12-19T05:16:04.839Z,36.27
2022-12-19T05:18:50.227Z,37.23
2022-12-19T05:21:35.791Z,35.43
2022-12-19T05:24:21.095Z,36.43
2022-12-19T05:27:06.723Z,36.37
2022-12-19T05:29:52.046Z,36.27
2022-12-19T05:32:37.474Z,37.00
2022-12-19T05:35:22.751Z,35.60
2022-12-19T05:38:07.968Z,37.33
2022-12-19T05:40:54.113Z,38.07
2022-12-19T05:43:39.687Z,36.17
2022-12-19T05:46:25.565Z,36.67
2022-12-19T05:49:11.306Z,39.23
2022-12-19T05:51:56.632Z,37.40
2022-12-19T05:54:42.236Z,39.90
2022-12-19T05:57:27.551Z,37.70
2022-12-19T06:00:13.367Z,37.83
2022-12-19T06:02:59.206Z,39.23
2022-12-19T06:05:45.004Z,39.10
2022-12-19T06:08:30.775Z,37.37
2022-12-19T06:11:16.011Z,41.47
2022-12-19T06:14:01.387Z,40.63
2022-12-19T06:16:46.923Z,40.10
2022-12-19T06:19:32.479Z,40.50
2022-12-19T06:22:17.911Z,41.87
2022-12-19T06:25:03.311Z,40.63
2022-12-19T06:27:48.601Z,40.27
2022-12-19T06:30:34.090Z,38.80
2022-12-19T06:33:19.509Z,38.10
2022-12-19T06:36:12.186Z,41.43
2022-12-19T06:38:58.591Z,40.73
2022-12-19T06:41:44.048Z,38.77
2022-12-19T06:44:31.629Z,40.87
2022-12-19T06:47:30.298Z,37.33
2022-12-19T06:50:15.584Z,39.73
2022-12-19T06:53:00.937Z,42.67
2022-12-19T06:55:48.028Z,40.23
2022-12-19T06:58:33.824Z,43.73
2022-12-19T07:01:20.966Z,45.67
2022-12-19T07:04:09.058Z,44.03
2022-12-19T07:06:54.742Z,45.27
2022-12-19T07:09:40.467Z,72.10
2022-12-19T07:12:25.760Z,49.17
2022-12-19T07:15:11.379Z,46.63
2022-12-19T07:17:57.004Z,46.27
2022-12-19T07:20:45.260Z,45.53
2022-12-19T07:23:31.995Z,45.13
2022-12-19T07:26:18.619Z,49.97
2022-12-19T07:29:08.328Z,51.80
2022-12-19T07:31:54.837Z,47.47
2022-12-19T07:34:41.551Z,50.00
2022-12-19T07:37:27.569Z,51.20
2022-12-19T07:40:15.036Z,49.70
2022-12-19T07:43:07.316Z,54.10
2022-12-19T07:45:58.386Z,52.03
2022-12-19T07:48:47.373Z,48.87
2022-12-19T07:51:33.125Z,50.97
2022-12-19T07:54:18.535Z,51.23
2022-12-19T07:57:05.771Z,50.43
2022-12-19T07:59:52.196Z,49.73
2022-12-19T08:02:39.720Z,49.47
2022-12-19T08:05:29.327Z,49.30
2022-12-19T08:08:15.220Z,51.93
2022-12-19T08:11:14.524Z,52.27
2022-12-19T08:14:01.933Z,108.93
2022-12-19T08:17:18.888Z,57.47
2022-12-19T08:19:54.209Z,52.03
2022-12-19T08:22:41.678Z,52.30
2022-12-19T08:25:28.051Z,53.07
2022-12-19T08:28:16.830Z,52.37
2022-12-19T08:31:16.046Z,52.93
2022-12-19T08:34:01.766Z,50.80
2022-12-19T08:36:48.821Z,50.50
2022-12-19T08:39:37.204Z,48.57
2022-12-19T08:42:25.723Z,51.43
2022-12-19T08:45:14.127Z,48.60
2022-12-19T08:48:01.537Z,46.63
2022-12-19T08:51:10.614Z,48.57
2022-12-19T08:53:57.868Z,48.80
2022-12-19T08:56:53.206Z,49.60
2022-12-19T08:59:40.229Z,50.57
2022-12-19T09:02:29.735Z,47.60
2022-12-19T09:06:00.544Z,44.93
2022-12-19T09:08:26.701Z,43.33
2022-12-19T09:11:17.256Z,43.73
2022-12-19T09:14:03.304Z,42.73
2022-12-19T09:16:57.036Z,51.93
2022-12-19T09:19:47.874Z,48.20
2022-12-19T09:22:40.882Z,47.67
2022-12-19T09:25:31.727Z,42.90
2022-12-19T09:28:27.406Z,42.77
2022-12-19T09:31:25.972Z,41.80
2022-12-19T09:34:12.145Z,42.00
2022-12-19T09:36:57.709Z,43.00
2022-12-19T09:39:43.039Z,43.37
2022-12-19T09:42:39.397Z,39.40
2022-12-19T09:45:53.381Z,43.00
2022-12-19T09:48:38.535Z,39.27
2022-12-19T09:51:35.363Z,42.13
2022-12-19T09:54:43.555Z,37.73
2022-12-19T09:58:07.648Z,41.20
2022-12-19T10:01:00.136Z,37.97
2022-12-19T10:03:59.619Z,39.70
2022-12-19T10:07:27.179Z,39.00
2022-12-19T10:12:34.094Z,35.23
2022-12-19T10:13:33.212Z,36.70
2022-12-19T10:20:25.683Z,35.57
2022-12-19T10:23:53.305Z,36.70
2022-12-19T10:30:27.920Z,44.87
2022-12-19T10:40:37.788Z,39.60
2022-12-19T10:43:55.173Z,35.83
2022-12-19T10:46:48.872Z,45.60
2022-12-19T10:49:34.197Z,35.77
2022-12-19T10:52:50.023Z,27.90
2022-12-19T10:55:38.484Z,32.17
2022-12-19T10:58:32.471Z,29.53
2022-12-19T11:01:30.148Z,28.13
2022-12-19T11:04:36.576Z,27.83
2022-12-19T11:07:22.180Z,25.50
2022-12-19T11:12:22.331Z,26.90
2022-12-19T11:18:52.771Z,26.97
2022-12-19T11:21:18.355Z,24.67
2022-12-19T11:29:27.584Z,24.97
2022-12-19T11:30:36.677Z,21.77
2022-12-19T11:30:46.073Z,21.47
2022-12-19T11:33:27.370Z,19.63
2022-12-19T11:36:41.745Z,19.17
2022-12-19T11:39:48.251Z,18.90
2022-12-19T11:42:44.173Z,18.33
2022-12-19T11:45:41.634Z,18.27
2022-12-19T11:48:27.644Z,17.13
2022-12-19T11:51:35.185Z,16.70
2022-12-19T11:54:26.785Z,16.83
2022-12-19T11:57:24.260Z,16.23
2022-12-19T12:00:30.455Z,16.33
2022-12-19T12:03:41.071Z,15.50
2022-12-19T12:06:48.216Z,16.00
2022-12-19T12:14:54.956Z,16.47
2022-12-19T12:23:44.848Z,15.90
2022-12-19T12:27:09.734Z,14.60
2022-12-19T12:30:14.630Z,14.77
2022-12-19T12:32:05.583Z,14.63
2022-12-19T12:32:06.161Z,14.60
2022-12-19T12:35:16.297Z,14.97
2022-12-19T12:35:48.611Z,14.70
2022-12-19T12:38:18.795Z,13.80
2022-12-19T12:41:04.832Z,14.13
2022-12-19T12:44:09.388Z,14.23
2022-12-19T12:47:17.116Z,13.33
2022-12-19T12:50:16.395Z,14.83
2022-12-19T12:53:07.287Z,13.40
2022-12-19T12:55:56.429Z,13.87
2022-12-19T12:58:47.750Z,13.27
2022-12-19T13:01:38.858Z,13.00
2022-12-19T13:04:31.572Z,13.47
2022-12-19T13:07:29.191Z,12.93
2022-12-19T13:10:16.882Z,13.07
2022-12-19T13:13:17.400Z,11.87
2022-12-19T13:16:43.681Z,12.20
2022-12-19T13:19:32.013Z,12.07
2022-12-19T13:22:20.714Z,12.10
2022-12-19T13:25:31.264Z,12.73
2022-12-19T13:28:23.206Z,12.90
2022-12-19T13:31:18.792Z,12.30
2022-12-19T13:34:16.223Z,11.97
2022-12-19T13:39:48.862Z,11.83
2022-12-19T13:40:54.807Z,11.33
2022-12-19T13:43:42.523Z,11.90
2022-12-19T13:46:43.610Z,11.23
2022-12-19T13:49:34.353Z,11.87
2022-12-19T13:52:20.769Z,11.43
2022-12-19T13:55:13.518Z,12.00
2022-12-19T13:57:59.412Z,11.23
2022-12-19T14:00:50.314Z,11.80
2022-12-19T14:03:43.310Z,11.00
2022-12-19T14:06:31.409Z,11.33
2022-12-19T14:11:32.831Z,10.63
2022-12-19T14:13:43.737Z,11.13
2022-12-19T14:16:02.090Z,11.53
2022-12-19T14:18:49.325Z,10.77
2022-12-19T14:22:05.492Z,11.10
2022-12-19T14:24:41.439Z,10.67
2022-12-19T14:28:24.935Z,10.63
2022-12-19T14:30:51.748Z,10.97
2022-12-19T14:34:11.169Z,10.90
2022-12-19T14:36:57.167Z,12.67
2022-12-19T14:39:50.710Z,41.13
2022-12-19T14:43:55.846Z,70.40
2022-12-19T14:53:34.138Z,17.03
2022-12-19T14:54:23.272Z,16.87
2022-12-19T14:59:44.094Z,18.13
2022-12-19T15:02:33.915Z,18.50
2022-12-19T15:05:20.002Z,17.23
2022-12-19T15:08:10.745Z,17.87
2022-12-19T15:11:14.819Z,17.70
2022-12-19T15:14:56.728Z,17.20
2022-12-19T15:17:22.960Z,16.63
2022-12-19T15:20:11.819Z,15.97
2022-12-19T15:22:57.188Z,15.80
2022-12-19T15:26:03.450Z,15.63
2022-12-19T15:28:49.977Z,16.33
2022-12-19T15:31:38.647Z,16.70
2022-12-19T15:34:44.339Z,14.90
2022-12-19T15:37:34.051Z,15.27
2022-12-19T15:40:19.714Z,16.03
2022-12-19T15:43:53.221Z,16.50
2022-12-19T15:46:30.565Z,18.43
2022-12-19T15:49:20.859Z,16.67
2022-12-19T15:52:15.601Z,19.70
2022-12-19T15:55:01.230Z,19.50
2022-12-19T15:57:56.666Z,19.07
2022-12-19T16:00:45.004Z,19.77
2022-12-19T16:03:37.032Z,18.90
2022-12-19T16:06:22.685Z,19.80
2022-12-19T16:09:24.151Z,16.07
2022-12-19T16:12:14.433Z,11.80
2022-12-19T16:15:01.641Z,11.50
2022-12-19T16:17:46.915Z,10.43
2022-12-19T16:20:35.354Z,10.10
2022-12-19T16:23:20.594Z,9.20
2022-12-19T16:26:16.023Z,9.20
2022-12-19T16:29:02.070Z,8.70
2022-12-19T16:31:48.145Z,9.10
2022-12-19T16:34:34.030Z,9.47
2022-12-19T16:37:19.828Z,136.40
2022-12-19T16:40:06.001Z,11.13
2022-12-19T16:42:59.200Z,11.90
2022-12-19T16:45:46.036Z,12.17
2022-12-19T16:48:34.908Z,11.57
2022-12-19T16:51:23.400Z,10.90
2022-12-19T16:54:11.682Z,11.37
2022-12-19T16:56:57.309Z,11.07
2022-12-19T16:59:42.998Z,9.97
2022-12-19T17:02:31.403Z,10.17
2022-12-19T17:05:22.109Z,10.10
2022-12-19T17:08:12.273Z,9.53
2022-12-19T17:10:57.566Z,9.37
2022-12-19T17:13:45.357Z,7.90
2022-12-19T17:16:31.602Z,8.17
2022-12-19T17:19:26.553Z,8.77
2022-12-19T17:22:16.927Z,8.33
2022-12-19T17:25:15.144Z,8.87
2022-12-19T17:28:00.523Z,8.60
2022-12-19T17:30:51.795Z,8.47
2022-12-19T17:33:40.575Z,8.57
2022-12-19T17:36:34.712Z,11.93
2022-12-19T17:39:26.037Z,15.33
2022-12-19T17:42:20.709Z,17.27
2022-12-19T17:45:06.551Z,17.47
2022-12-19T17:47:58.413Z,18.10
2022-12-19T17:50:48.142Z,17.87
2022-12-19T17:53:33.716Z,17.40
2022-12-19T17:56:20.392Z,17.30
2022-12-19T17:59:06.509Z,16.10
2022-12-19T18:01:52.595Z,16.73
2022-12-19T18:04:38.383Z,15.63
2022-12-19T18:07:25.206Z,15.87
2022-12-19T18:10:18.599Z,15.87
2022-12-19T18:13:04.148Z,16.83
2022-12-19T18:15:50.076Z,16.37
2022-12-19T18:18:36.523Z,17.70
2022-12-19T18:21:22.476Z,17.53
2022-12-19T18:24:12.329Z,18.77
2022-12-19T18:26:58.151Z,17.43
2022-12-19T18:29:43.926Z,16.40
2022-12-19T18:32:29.686Z,16.80
2022-12-19T18:35:36.950Z,16.87
2022-12-19T18:38:23.872Z,17.13
2022-12-19T18:41:12.807Z,39.90
2022-12-19T18:44:01.393Z,22.17
2022-12-19T18:46:50.303Z,18.30
2022-12-19T18:49:35.901Z,17.03
2022-12-19T18:52:21.361Z,16.03
2022-12-19T18:55:16.887Z,17.10
2022-12-19T18:58:02.153Z,17.23
2022-12-19T19:01:00.856Z,17.63
2022-12-19T19:03:55.481Z,17.30
2022-12-19T19:06:50.059Z,16.77
2022-12-19T19:09:36.805Z,17.80
2022-12-19T19:12:22.559Z,16.87
2022-12-19T19:15:09.715Z,16.13
2022-12-19T19:18:07.692Z,17.00
2022-12-19T19:21:00.803Z,15.80
2022-12-19T19:24:00.163Z,15.63
2022-12-19T19:26:46.030Z,16.23
2022-12-19T19:29:31.359Z,16.43
2022-12-19T19:32:17.878Z,16.07
2022-12-19T19:35:06.905Z,15.23
2022-12-19T19:37:54.518Z,16.20
2022-12-19T19:40:40.275Z,14.37
2022-12-19T19:43:25.789Z,15.47
2022-12-19T19:46:11.239Z,15.20
2022-12-19T19:48:57.425Z,13.80
2022-12-19T19:51:42.864Z,13.93
2022-12-19T19:54:28.221Z,14.13
2022-12-19T19:57:13.829Z,15.17
2022-12-19T19:59:59.261Z,16.37
2022-12-19T20:02:44.908Z,19.87
2022-12-19T20:05:30.556Z,24.67
2022-12-19T20:08:16.805Z,21.87
2022-12-19T20:11:02.868Z,18.27
2022-12-19T20:13:48.147Z,18.80
2022-12-19T20:16:33.515Z,16.00
2022-12-19T20:19:19.155Z,13.93
2022-12-19T20:22:04.661Z,12.57
2022-12-19T20:24:50.216Z,10.50
2022-12-19T20:27:35.610Z,9.70
2022-12-19T20:30:20.991Z,9.80
2022-12-19T20:33:06.437Z,8.63
2022-12-19T20:35:58.770Z,8.90
2022-12-19T20:38:44.196Z,8.37
2022-12-19T20:41:29.616Z,8.27
2022-12-19T20:44:20.364Z,8.40
2022-12-19T20:47:09.283Z,7.43
2022-12-19T20:49:54.796Z,7.90
2022-12-19T20:52:40.396Z,7.37
2022-12-19T20:55:25.921Z,8.20
2022-12-19T20:58:11.442Z,6.70
2022-12-19T21:01:12.251Z,7.87
2022-12-19T21:03:58.278Z,7.00
2022-12-19T21:06:43.991Z,7.33
2022-12-19T21:09:29.325Z,8.53
2022-12-19T21:12:21.382Z,7.50
2022-12-19T21:15:07.646Z,9.10
2022-12-19T21:17:54.466Z,10.03
2022-12-19T21:20:39.838Z,7.50
2022-12-19T21:23:25.940Z,8.33
2022-12-19T21:26:12.313Z,7.67
2022-12-19T21:28:57.971Z,7.87
2022-12-19T21:31:43.395Z,8.23
2022-12-19T21:34:28.878Z,7.90
2022-12-19T21:37:14.468Z,7.00
2022-12-19T21:39:59.792Z,7.13
2022-12-19T21:42:47.418Z,7.40
2022-12-19T21:45:36.261Z,7.30
2022-12-19T21:48:23.661Z,7.00
2022-12-19T21:51:11.977Z,7.33
2022-12-19T21:54:00.513Z,7.07
2022-12-19T21:56:45.965Z,6.97
2022-12-19T21:59:31.247Z,6.23
2022-12-19T22:02:16.806Z,6.90
2022-12-19T22:05:02.955Z,7.10
2022-12-19T22:07:48.751Z,6.93
2022-12-19T22:10:34.341Z,6.17
2022-12-19T22:13:21.748Z,7.07
2022-12-19T22:16:10.117Z,6.53
2022-12-19T22:18:56.099Z,6.30
2022-12-19T22:21:41.679Z,6.17
2022-12-19T22:24:26.926Z,5.97
2022-12-19T22:27:12.312Z,5.73
2022-12-19T22:30:03.604Z,6.30
2022-12-19T22:32:52.312Z,6.03
2022-12-19T22:35:37.674Z,6.07
2022-12-19T22:38:22.993Z,5.40
2022-12-19T22:41:08.909Z,5.13
2022-12-19T22:43:55.742Z,5.83
2022-12-19T22:46:41.143Z,5.37
2022-12-19T22:49:27.475Z,5.33
2022-12-19T22:52:13.198Z,5.90
2022-12-19T22:54:58.349Z,5.73
2022-12-19T22:57:43.609Z,5.70
2022-12-19T23:00:28.992Z,5.70
2022-12-19T23:03:14.523Z,5.83
2022-12-19T23:06:01.390Z,5.40
2022-12-19T23:08:47.714Z,5.90
2022-12-19T23:11:36.448Z,5.73
2022-12-19T23:14:22.222Z,5.37
2022-12-19T23:17:07.535Z,5.80
2022-12-19T23:19:53.265Z,6.17
2022-12-19T23:22:38.735Z,5.53
2022-12-19T23:25:24.135Z,5.90
2022-12-19T23:28:10.238Z,5.73
2022-12-19T23:31:07.113Z,6.23
2022-12-19T23:33:53.582Z,5.80
2022-12-19T23:39:45.089Z,5.33
2022-12-19T23:42:31.061Z,5.40
2022-12-19T23:45:16.948Z,5.60
2022-12-19T23:48:02.109Z,5.87
2022-12-19T23:50:47.632Z,5.60
2022-12-19T23:53:33.465Z,5.73
2022-12-19T23:56:28.101Z,5.50
2022-12-19T23:59:13.451Z,5.57
